createdAt,value
2023-03-15T00:01:08.263Z,95940.19
2023-03-15T00:03:37.584Z,95928.44
2023-03-15T00:06:07.540Z,95894.19
2023-03-15T00:08:35.537Z,95906.25
2023-03-15T00:11:03.656Z,95907.06
2023-03-15T00:13:32.724Z,95890.25
2023-03-15T00:16:04.114Z,95895.31
2023-03-15T00:18:32.563Z,95896.13
2023-03-15T00:21:00.627Z,95886.69
2023-03-15T00:23:31.625Z,95883.56
2023-03-15T00:25:59.431Z,95861.69
2023-03-15T00:28:27.428Z,95830.03
2023-03-15T00:31:04.967Z,95791.38
2023-03-15T00:33:34.952Z,95776.06
2023-03-15T00:36:05.539Z,95736.94
2023-03-15T00:38:35.586Z,95689.63
2023-03-15T00:41:07.715Z,95711.50
2023-03-15T00:43:36.052Z,95680.50
2023-03-15T00:46:04.401Z,95651.00
2023-03-15T00:48:32.794Z,95680.50
2023-03-15T00:51:05.771Z,95704.94
2023-03-15T00:53:36.176Z,95686.38
2023-03-15T00:56:07.704Z,95659.31
2023-03-15T00:58:35.676Z,95648.41
2023-03-15T01:01:07.169Z,95624.78
2023-03-15T01:03:36.839Z,95610.34
2023-03-15T01:06:10.169Z,95655.09
2023-03-15T01:08:39.631Z,95664.53
2023-03-15T01:11:09.790Z,95660.13
2023-03-15T01:13:37.998Z,95617.09
2023-03-15T01:16:07.385Z,95616.28
2023-03-15T01:18:35.340Z,95565.63
2023-03-15T01:21:03.191Z,95543.78
2023-03-15T01:23:31.004Z,95507.47
2023-03-15T01:26:02.707Z,95459.97
2023-03-15T01:28:30.813Z,95495.44
2023-03-15T01:30:59.959Z,95483.56
2023-03-15T01:33:28.477Z,95462.69
2023-03-15T01:36:00.981Z,95497.97
2023-03-15T01:38:29.132Z,95464.19
2023-03-15T01:40:57.014Z,95441.41
2023-03-15T01:43:27.932Z,95428.06
2023-03-15T01:46:08.394Z,95436.22
2023-03-15T01:48:44.518Z,95444.16
2023-03-15T01:51:19.846Z,95429.69
2023-03-15T01:53:52.996Z,95384.09
2023-03-15T01:56:21.483Z,95313.88
2023-03-15T01:58:54.934Z,95271.88
2023-03-15T02:01:23.057Z,95228.16
2023-03-15T02:03:55.369Z,95238.75
2023-03-15T02:06:24.204Z,95262.47
2023-03-15T02:08:55.954Z,95271.56
2023-03-15T02:11:26.917Z,95300.53
2023-03-15T02:13:57.896Z,95270.91
2023-03-15T02:16:26.477Z,95267.66
2023-03-15T02:18:54.343Z,95255.94
2023-03-15T02:21:34.184Z,95260.03
2023-03-15T02:24:12.311Z,95272.84
2023-03-15T02:26:46.110Z,95296.28
2023-03-15T02:29:15.964Z,95314.03
2023-03-15T02:31:46.710Z,95355.16
2023-03-15T02:34:14.584Z,95382.47
2023-03-15T02:36:42.405Z,95386.53
2023-03-15T02:39:18.097Z,95347.69
2023-03-15T02:41:50.632Z,95352.88
2023-03-15T02:44:24.334Z,95319.22
2023-03-15T02:46:54.746Z,95330.78
2023-03-15T02:49:25.908Z,95327.50
2023-03-15T02:51:53.784Z,95278.69
2023-03-15T02:54:21.778Z,95216.28
2023-03-15T02:56:49.567Z,95172.25
2023-03-15T02:59:17.436Z,95125.16
2023-03-15T03:01:46.869Z,95091.53
2023-03-15T03:04:14.690Z,95021.69
2023-03-15T03:06:44.114Z,94971.34
2023-03-15T03:09:12.460Z,94914.88
2023-03-15T03:11:40.325Z,94902.09
2023-03-15T03:14:08.096Z,94918.16
2023-03-15T03:16:36.996Z,94922.38
2023-03-15T03:19:06.197Z,94898.69
2023-03-15T03:21:33.981Z,94924.00
2023-03-15T03:24:01.804Z,95016.50
2023-03-15T03:26:32.714Z,95044.41
2023-03-15T03:29:00.506Z,95043.59
2023-03-15T03:31:29.120Z,95103.53
2023-03-15T03:33:57.645Z,95143.81
2023-03-15T03:36:27.202Z,95122.72
2023-03-15T03:38:55.270Z,95178.25
2023-03-15T03:41:23.115Z,95150.47
2023-03-15T03:43:50.991Z,95127.84
2023-03-15T03:46:18.966Z,95197.78
2023-03-15T03:48:46.970Z,95193.41
2023-03-15T03:51:14.768Z,95231.56
2023-03-15T03:53:43.856Z,95277.72
2023-03-15T03:56:11.621Z,95320.03
2023-03-15T03:58:39.486Z,95355.47
2023-03-15T04:01:07.293Z,95345.91
2023-03-15T04:03:35.100Z,95365.56
2023-03-15T04:06:05.667Z,95345.22
2023-03-15T04:08:33.595Z,95357.91
2023-03-15T04:11:04.241Z,95347.00
2023-03-15T04:13:32.257Z,95310.09
2023-03-15T04:16:01.454Z,95308.16
2023-03-15T04:18:29.703Z,95279.38
2023-03-15T04:20:59.490Z,95269.44
2023-03-15T04:23:27.258Z,95250.75
2023-03-15T04:25:55.736Z,95197.13
2023-03-15T04:28:25.041Z,95195.84
2023-03-15T04:30:58.672Z,95202.00
2023-03-15T04:33:26.779Z,95205.25
2023-03-15T04:35:55.099Z,95159.22
2023-03-15T04:38:26.638Z,95120.09
2023-03-15T04:40:55.488Z,95135.38
2023-03-15T04:43:24.750Z,95119.59
2023-03-15T04:45:53.007Z,95107.44
2023-03-15T04:48:20.841Z,95108.56
2023-03-15T04:50:48.678Z,95102.06
2023-03-15T04:53:16.567Z,95114.25
2023-03-15T04:55:44.629Z,95126.78
2023-03-15T04:58:12.425Z,95180.72
2023-03-15T05:00:41.724Z,95196.97
2023-03-15T05:03:09.577Z,95194.38
2023-03-15T05:05:37.357Z,95159.72
2023-03-15T05:08:05.573Z,95155.97
2023-03-15T05:10:33.335Z,95207.84
2023-03-15T05:13:01.202Z,95227.34
2023-03-15T05:15:29.072Z,95217.09
2023-03-15T05:17:58.348Z,95269.28
2023-03-15T05:20:26.227Z,95284.56
2023-03-15T05:22:54.337Z,95335.31
2023-03-15T05:25:22.865Z,95322.63
2023-03-15T05:27:50.616Z,95311.56
2023-03-15T05:30:18.579Z,95331.75
2023-03-15T05:32:46.456Z,95319.22
2023-03-15T05:35:15.765Z,95342.78
2023-03-15T05:37:43.610Z,95401.31
2023-03-15T05:40:12.666Z,95465.97
2023-03-15T05:42:40.441Z,95528.66
2023-03-15T05:45:09.422Z,95530.94
2023-03-15T05:47:37.423Z,95568.22
2023-03-15T05:50:06.055Z,95585.00
2023-03-15T05:52:35.222Z,95583.66
2023-03-15T05:55:02.963Z,95620.81
2023-03-15T05:57:31.436Z,95676.56
2023-03-15T05:59:59.271Z,95727.81
2023-03-15T06:02:27.122Z,95831.00
2023-03-15T06:04:55.073Z,95920.78
2023-03-15T06:07:23.236Z,96032.63
2023-03-15T06:09:52.465Z,96215.84
2023-03-15T06:12:20.638Z,96390.59
2023-03-15T06:14:48.454Z,96515.53
2023-03-15T06:17:16.303Z,96571.56
2023-03-15T06:19:44.090Z,96542.72
2023-03-15T06:22:12.360Z,96421.19
2023-03-15T06:24:40.130Z,96371.09
2023-03-15T06:27:09.553Z,96282.88
2023-03-15T06:29:37.422Z,96218.28
2023-03-15T06:32:05.771Z,96185.56
2023-03-15T06:34:33.498Z,96145.66
2023-03-15T06:37:01.478Z,96211.44
2023-03-15T06:39:29.289Z,96321.69
2023-03-15T06:41:58.505Z,96367.81
2023-03-15T06:44:27.684Z,96383.16
2023-03-15T06:46:55.520Z,96357.66
2023-03-15T06:49:23.254Z,96307.59
2023-03-15T06:51:51.213Z,96283.00
2023-03-15T06:54:19.040Z,96262.88
2023-03-15T06:56:46.759Z,96313.47
2023-03-15T06:59:14.578Z,96385.63
2023-03-15T07:01:43.748Z,96508.69
2023-03-15T07:04:11.756Z,96659.53
2023-03-15T07:06:39.567Z,96795.53
2023-03-15T07:09:07.332Z,96920.66
2023-03-15T07:11:35.236Z,97013.75
2023-03-15T07:14:03.150Z,97208.94
2023-03-15T07:16:30.875Z,97325.13
2023-03-15T07:19:00.287Z,97496.06
2023-03-15T07:21:29.066Z,97564.47
2023-03-15T07:23:56.906Z,97562.69
2023-03-15T07:26:24.708Z,97608.16
2023-03-15T07:28:52.504Z,97834.91
2023-03-15T07:31:20.224Z,97980.88
2023-03-15T07:33:48.045Z,98158.31
2023-03-15T07:36:17.247Z,98423.97
2023-03-15T07:38:45.030Z,98618.44
2023-03-15T07:41:12.783Z,99006.47
2023-03-15T07:43:40.662Z,99066.13
2023-03-15T07:46:08.707Z,98839.47
2023-03-15T07:48:36.525Z,98687.41
2023-03-15T07:51:04.671Z,98636.38
2023-03-15T07:53:33.872Z,98439.53
2023-03-15T07:56:02.018Z,98250.44
2023-03-15T07:58:29.820Z,98317.56
2023-03-15T08:00:57.988Z,98083.94
2023-03-15T08:03:26.938Z,98140.53
2023-03-15T08:05:57.676Z,98264.28
2023-03-15T08:08:26.245Z,98180.91
2023-03-15T08:10:55.944Z,98154.41
2023-03-15T08:13:24.326Z,98108.09
2023-03-15T08:15:52.453Z,98055.56
2023-03-15T08:18:20.328Z,98022.66
2023-03-15T08:20:48.097Z,98277.31
2023-03-15T08:23:16.753Z,98497.31
2023-03-15T08:25:45.184Z,98857.34
2023-03-15T08:28:14.533Z,99111.84
2023-03-15T08:30:42.320Z,99464.50
2023-03-15T08:33:10.445Z,99634.22
2023-03-15T08:35:38.332Z,99684.56
2023-03-15T08:38:06.255Z,99740.00
2023-03-15T08:40:34.059Z,99898.75
2023-03-15T08:43:01.887Z,100028.25
2023-03-15T08:45:33.017Z,99920.56
2023-03-15T08:48:01.571Z,99631.94
2023-03-15T08:50:31.740Z,99978.16
2023-03-15T08:52:59.635Z,99978.16
2023-03-15T08:55:27.406Z,100089.94
2023-03-15T08:57:55.165Z,100058.75
2023-03-15T09:00:23.641Z,99811.31
2023-03-15T09:02:53.375Z,99825.19
2023-03-15T09:05:22.307Z,99702.13
2023-03-15T09:07:50.153Z,99790.59
2023-03-15T09:10:19.044Z,99879.94
2023-03-15T09:12:49.001Z,99924.19
2023-03-15T09:15:17.286Z,100076.59
2023-03-15T09:17:45.809Z,100342.84
2023-03-15T09:20:18.857Z,100659.00
2023-03-15T09:22:53.470Z,100711.28
2023-03-15T09:25:22.089Z,101045.59
2023-03-15T09:27:50.164Z,101092.72
2023-03-15T09:30:18.890Z,101263.31
2023-03-15T09:32:46.897Z,101075.44
2023-03-15T09:35:18.461Z,100948.75
2023-03-15T09:37:46.744Z,100596.41
2023-03-15T09:40:19.828Z,100564.38
2023-03-15T09:43:00.361Z,100725.41
2023-03-15T09:45:36.344Z,101148.75
2023-03-15T09:48:10.098Z,101379.69
2023-03-15T09:50:45.714Z,101537.25
2023-03-15T09:53:18.781Z,101556.50
2023-03-15T09:55:48.590Z,101570.59
2023-03-15T09:58:20.624Z,101740.50
2023-03-15T10:00:52.309Z,101794.00
2023-03-15T10:03:24.202Z,102206.88
2023-03-15T10:05:57.983Z,102461.13
2023-03-15T10:08:26.717Z,102408.41
2023-03-15T10:10:57.917Z,102192.84
2023-03-15T10:13:51.396Z,102481.50
2023-03-15T10:16:30.060Z,102715.81
2023-03-15T10:19:07.877Z,102788.22
2023-03-15T10:21:47.098Z,103021.97
2023-03-15T10:24:20.730Z,103077.03
2023-03-15T10:26:51.411Z,102523.78
2023-03-15T10:29:22.246Z,102269.22
2023-03-15T10:31:52.637Z,102574.63
2023-03-15T10:34:22.024Z,102427.63
2023-03-15T10:36:55.166Z,102282.44
2023-03-15T10:39:23.723Z,102379.22
2023-03-15T10:41:52.353Z,102770.31
2023-03-15T10:44:22.410Z,102909.69
2023-03-15T10:47:21.595Z,103139.44
2023-03-15T10:49:51.525Z,103292.66
2023-03-15T10:52:35.657Z,102994.59
2023-03-15T10:55:06.997Z,102894.78
2023-03-15T10:57:40.622Z,103195.06
2023-03-15T11:00:26.927Z,103281.75
2023-03-15T11:03:03.405Z,103214.47
2023-03-15T11:05:33.366Z,103301.19
2023-03-15T11:08:02.580Z,103211.88
2023-03-15T11:10:35.282Z,102986.50
2023-03-15T11:13:21.816Z,102902.59
2023-03-15T11:16:01.455Z,103644.63
2023-03-15T11:18:33.664Z,103854.06
2023-03-15T11:21:05.864Z,104302.63
2023-03-15T11:23:37.802Z,104134.56
2023-03-15T11:26:06.278Z,104015.53
2023-03-15T11:28:37.553Z,103806.78
2023-03-15T11:31:07.210Z,104109.63
2023-03-15T11:33:44.934Z,104085.59
2023-03-15T11:36:17.868Z,103965.66
2023-03-15T11:38:47.556Z,103602.84
2023-03-15T11:41:28.804Z,103961.16
2023-03-15T11:44:03.720Z,103596.53
2023-03-15T11:46:35.000Z,103006.41
2023-03-15T11:49:10.398Z,103151.25
2023-03-15T11:51:38.269Z,103141.53
2023-03-15T11:54:12.550Z,102889.69
2023-03-15T11:56:50.138Z,103030.03
2023-03-15T11:59:19.786Z,103359.94
2023-03-15T12:01:50.568Z,103680.44
2023-03-15T12:04:39.556Z,103354.56
2023-03-15T12:07:28.818Z,102976.13
2023-03-15T12:09:59.499Z,103088.34
2023-03-15T12:12:41.496Z,103099.78
2023-03-15T12:15:44.224Z,102954.91
2023-03-15T12:18:17.984Z,103048.41
2023-03-15T12:20:58.943Z,102431.09
2023-03-15T12:23:39.132Z,102347.34
2023-03-15T12:26:15.045Z,102004.38
2023-03-15T12:28:52.588Z,101762.34
2023-03-15T12:31:21.608Z,101595.53
2023-03-15T12:33:55.090Z,101640.31
2023-03-15T12:36:36.285Z,101361.78
2023-03-15T12:39:22.424Z,101388.88
2023-03-15T12:41:53.007Z,101446.59
2023-03-15T12:44:39.347Z,101335.31
2023-03-15T12:47:07.770Z,101094.81
2023-03-15T12:49:38.731Z,101010.19
2023-03-15T12:52:14.552Z,100951.59
2023-03-15T12:54:46.140Z,100932.22
2023-03-15T12:57:23.473Z,101141.94
2023-03-15T12:59:55.884Z,101233.88
2023-03-15T13:02:42.733Z,101246.69
2023-03-15T13:05:20.746Z,101457.59
2023-03-15T13:08:04.959Z,101836.97
2023-03-15T13:11:01.380Z,102197.31
2023-03-15T13:13:51.678Z,101901.97
2023-03-15T13:16:31.035Z,101931.84
2023-03-15T13:19:14.394Z,102163.56
2023-03-15T13:21:57.891Z,102146.94
2023-03-15T13:24:34.632Z,102327.09
2023-03-15T13:27:08.775Z,102542.19
2023-03-15T13:29:38.142Z,102182.13
2023-03-15T13:32:14.461Z,102013.28
2023-03-15T13:34:45.150Z,102390.47
2023-03-15T13:37:15.609Z,102273.53
2023-03-15T13:39:55.909Z,102526.03
2023-03-15T13:42:25.431Z,102783.38
2023-03-15T13:45:12.525Z,102683.66
2023-03-15T13:47:41.617Z,102822.06
2023-03-15T13:50:13.866Z,102625.47
2023-03-15T13:52:42.746Z,102553.16
2023-03-15T13:55:13.975Z,102465.94
2023-03-15T13:57:42.322Z,102592.88
2023-03-15T14:00:14.684Z,102631.63
2023-03-15T14:02:49.610Z,102494.06
2023-03-15T14:05:27.070Z,102644.75
2023-03-15T14:07:59.488Z,103033.81
2023-03-15T14:10:31.411Z,103205.22
2023-03-15T14:13:16.627Z,103143.31
2023-03-15T14:15:48.270Z,102815.72
2023-03-15T14:18:20.477Z,103204.09
2023-03-15T14:20:54.492Z,103346.72
2023-03-15T14:23:25.542Z,103300.63
2023-03-15T14:25:54.937Z,103053.97
2023-03-15T14:28:24.447Z,102745.72
2023-03-15T14:30:55.351Z,102786.38
2023-03-15T14:33:31.348Z,102802.25
2023-03-15T14:36:01.695Z,102478.78
2023-03-15T14:38:35.364Z,102646.97
2023-03-15T14:41:20.407Z,102469.97
2023-03-15T14:43:48.179Z,102544.66
2023-03-15T14:46:17.427Z,102496.19
2023-03-15T14:48:45.776Z,102496.97
2023-03-15T14:51:16.856Z,102589.50
2023-03-15T14:53:45.480Z,102411.56
2023-03-15T14:56:14.149Z,102393.94
2023-03-15T14:58:42.516Z,102503.00
2023-03-15T15:01:14.601Z,101956.84
2023-03-15T15:03:49.367Z,101842.69
2023-03-15T15:06:17.539Z,101920.78
2023-03-15T15:08:47.365Z,101595.38
2023-03-15T15:11:16.022Z,101165.91
2023-03-15T15:13:43.978Z,100971.03
2023-03-15T15:16:11.751Z,100803.16
2023-03-15T15:18:39.689Z,100439.94
2023-03-15T15:21:14.580Z,99843.88
2023-03-15T15:23:56.928Z,99371.00
2023-03-15T15:26:27.639Z,99124.75
2023-03-15T15:28:56.619Z,98889.03
2023-03-15T15:31:26.927Z,98730.22
2023-03-15T15:33:56.510Z,98608.88
2023-03-15T15:36:28.099Z,98566.50
2023-03-15T15:38:56.954Z,98589.00
2023-03-15T15:41:26.884Z,98534.94
2023-03-15T15:43:55.106Z,98428.44
2023-03-15T15:46:23.936Z,98365.38
2023-03-15T15:48:52.471Z,98267.34
2023-03-15T15:51:26.744Z,98204.06
2023-03-15T15:53:55.800Z,98125.69
2023-03-15T15:56:30.075Z,98058.38
2023-03-15T15:58:58.468Z,98057.03
2023-03-15T16:01:26.318Z,98009.78
2023-03-15T16:03:54.209Z,98008.09
2023-03-15T16:06:23.209Z,97961.97
2023-03-15T16:08:55.297Z,97933.28
2023-03-15T16:11:23.270Z,97910.97
2023-03-15T16:13:53.837Z,97873.19
2023-03-15T16:16:22.596Z,97847.00
2023-03-15T16:18:51.058Z,97821.78
2023-03-15T16:21:23.030Z,97805.59
2023-03-15T16:23:57.313Z,97755.63
2023-03-15T16:26:25.137Z,97723.25
2023-03-15T16:28:53.126Z,97718.84
2023-03-15T16:31:22.888Z,97692.25
2023-03-15T16:33:51.139Z,97682.41
2023-03-15T16:36:20.836Z,97667.50
2023-03-15T16:38:48.792Z,97631.41
2023-03-15T16:41:18.532Z,97593.81
2023-03-15T16:43:49.111Z,97578.28
2023-03-15T16:46:17.517Z,97553.53
2023-03-15T16:48:45.368Z,97521.91
2023-03-15T16:51:15.493Z,97507.25
2023-03-15T16:53:45.182Z,97456.94
2023-03-15T16:56:15.439Z,97411.50
2023-03-15T16:58:45.204Z,97432.91
2023-03-15T17:01:13.017Z,97402.94
2023-03-15T17:03:40.793Z,97404.75
2023-03-15T17:06:20.081Z,97377.41
2023-03-15T17:08:48.521Z,97340.66
2023-03-15T17:11:16.650Z,97307.66
2023-03-15T17:13:45.967Z,97344.78
2023-03-15T17:16:15.373Z,97346.59
2023-03-15T17:18:44.171Z,97326.03
2023-03-15T17:21:14.361Z,97328.50
2023-03-15T17:23:42.667Z,97301.03
2023-03-15T17:26:13.456Z,97308.78
2023-03-15T17:28:42.615Z,97311.41
2023-03-15T17:31:25.406Z,97326.03
2023-03-15T17:33:54.604Z,97304.50
2023-03-15T17:36:24.662Z,97287.38
2023-03-15T17:38:53.078Z,97258.56
2023-03-15T17:41:22.872Z,97272.91
2023-03-15T17:43:52.690Z,97245.44
2023-03-15T17:46:28.192Z,97215.63
2023-03-15T17:48:56.401Z,97227.47
2023-03-15T17:51:25.903Z,97189.13
2023-03-15T17:53:54.568Z,97170.25
2023-03-15T17:56:23.583Z,97151.34
2023-03-15T17:58:52.481Z,97207.06
2023-03-15T18:01:24.199Z,97195.91
2023-03-15T18:03:52.576Z,97181.41
2023-03-15T18:06:22.262Z,97165.16
2023-03-15T18:08:51.366Z,97136.06
2023-03-15T18:11:25.523Z,97099.38
2023-03-15T18:13:53.717Z,97077.16
2023-03-15T18:16:23.172Z,97069.59
2023-03-15T18:18:51.014Z,97060.91
2023-03-15T18:21:20.643Z,97080.91
2023-03-15T18:23:49.735Z,97064.22
2023-03-15T18:26:18.040Z,97047.41
2023-03-15T18:28:48.919Z,97002.19
2023-03-15T18:31:19.231Z,96977.38
2023-03-15T18:33:49.017Z,96991.72
2023-03-15T18:36:16.833Z,96986.75
2023-03-15T18:38:44.766Z,97008.00
2023-03-15T18:41:18.856Z,96980.56
2023-03-15T18:43:50.107Z,96958.81
2023-03-15T18:46:19.571Z,96922.03
2023-03-15T18:48:49.933Z,96915.16
2023-03-15T18:51:18.737Z,96891.44
2023-03-15T18:53:47.518Z,96852.06
2023-03-15T18:56:20.355Z,96827.59
2023-03-15T18:58:49.007Z,96813.00
2023-03-15T19:01:16.966Z,96760.97
2023-03-15T19:03:45.114Z,96746.50
2023-03-15T19:06:14.329Z,96725.34
2023-03-15T19:08:42.884Z,96715.03
2023-03-15T19:11:11.578Z,96712.41
2023-03-15T19:13:39.575Z,96718.47
2023-03-15T19:16:07.935Z,96670.19
2023-03-15T19:18:36.075Z,96637.44
2023-03-15T19:21:03.863Z,96632.50
2023-03-15T19:23:34.240Z,96598.56
2023-03-15T19:26:02.110Z,96579.59
2023-03-15T19:28:30.405Z,96562.69
2023-03-15T19:30:58.924Z,96518.44
2023-03-15T19:33:29.076Z,96534.63
2023-03-15T19:35:57.190Z,96544.94
2023-03-15T19:38:25.160Z,96493.03
2023-03-15T19:40:56.748Z,96477.50
2023-03-15T19:43:26.191Z,96426.69
2023-03-15T19:45:54.026Z,96436.84
2023-03-15T19:48:22.196Z,96445.34
2023-03-15T19:50:49.937Z,96445.09
2023-03-15T19:53:18.295Z,96435.88
2023-03-15T19:55:46.132Z,96392.94
2023-03-15T19:58:15.347Z,96375.63
2023-03-15T20:00:43.200Z,96353.66
2023-03-15T20:03:12.582Z,96345.16
2023-03-15T20:05:40.542Z,96283.94
2023-03-15T20:08:09.663Z,96262.81
2023-03-15T20:10:37.536Z,96236.19
2023-03-15T20:13:05.295Z,96220.28
2023-03-15T20:15:34.501Z,96171.06
2023-03-15T20:18:02.488Z,96158.31
2023-03-15T20:20:31.139Z,96121.06
2023-03-15T20:22:58.918Z,96138.72
2023-03-15T20:25:26.683Z,96115.03
2023-03-15T20:27:54.553Z,96122.94
2023-03-15T20:30:22.851Z,96093.88
2023-03-15T20:32:52.306Z,96051.41
2023-03-15T20:35:20.369Z,96016.63
2023-03-15T20:37:49.358Z,95982.94
2023-03-15T20:40:17.349Z,95956.66
2023-03-15T20:42:45.157Z,95912.06
2023-03-15T20:45:14.067Z,95900.81
2023-03-15T20:47:42.602Z,95850.84
2023-03-15T20:50:14.185Z,95849.88
2023-03-15T20:52:42.702Z,95814.16
2023-03-15T20:55:11.514Z,95789.16
2023-03-15T20:57:41.704Z,95729.94
2023-03-15T21:00:12.532Z,95706.31
2023-03-15T21:02:41.197Z,95711.22
2023-03-15T21:05:12.971Z,95670.44
2023-03-15T21:07:41.506Z,95640.13
2023-03-15T21:10:10.916Z,95602.97
2023-03-15T21:12:38.684Z,95563.34
2023-03-15T21:15:07.902Z,95548.19
2023-03-15T21:17:35.633Z,95524.44
2023-03-15T21:20:07.259Z,95506.69
2023-03-15T21:22:36.360Z,95472.69
2023-03-15T21:25:05.670Z,95460.94
2023-03-15T21:27:33.866Z,95438.13
2023-03-15T21:30:01.695Z,95415.34
2023-03-15T21:32:29.706Z,95411.13
2023-03-15T21:34:58.573Z,95405.56
2023-03-15T21:37:26.339Z,95361.31
2023-03-15T21:39:55.855Z,95352.88
2023-03-15T21:42:23.836Z,95347.94
2023-03-15T21:44:53.600Z,95304.84
2023-03-15T21:47:21.698Z,95302.25
2023-03-15T21:49:49.567Z,95304.34
2023-03-15T21:52:17.658Z,95310.88
2023-03-15T21:54:45.837Z,95323.41
2023-03-15T21:57:15.147Z,95322.59
2023-03-15T21:59:42.908Z,95319.31
2023-03-15T22:02:14.291Z,95292.03
2023-03-15T22:04:42.725Z,95294.63
2023-03-15T22:07:11.784Z,95272.66
2023-03-15T22:09:41.380Z,95234.75
2023-03-15T22:12:09.922Z,95214.59
2023-03-15T22:14:40.004Z,95227.94
2023-03-15T22:17:07.920Z,95164.84
2023-03-15T22:19:35.926Z,95142.13
2023-03-15T22:22:03.684Z,95142.72
2023-03-15T22:24:34.020Z,95163.09
2023-03-15T22:27:02.269Z,95101.66
2023-03-15T22:29:30.283Z,95049.53
2023-03-15T22:31:59.603Z,94992.34
2023-03-15T22:34:27.450Z,94975.47
2023-03-15T22:36:55.287Z,94930.84
2023-03-15T22:39:23.219Z,94891.41
2023-03-15T22:41:54.034Z,94916.41
2023-03-15T22:44:22.463Z,94918.03
2023-03-15T22:46:50.563Z,94913.94
2023-03-15T22:49:19.837Z,94942.53
2023-03-15T22:51:47.676Z,94958.59
2023-03-15T22:54:15.712Z,94939.44
2023-03-15T22:56:44.022Z,94945.94
2023-03-15T22:59:12.023Z,94945.94
2023-03-15T23:01:40.147Z,94938.47
2023-03-15T23:04:08.032Z,94918.03
2023-03-15T23:06:37.218Z,94898.38
2023-03-15T23:09:06.655Z,94861.72
2023-03-15T23:11:34.641Z,94812.91
2023-03-15T23:14:02.416Z,94752.25
2023-03-15T23:16:30.435Z,94715.47
2023-03-15T23:18:58.587Z,94748.06
2023-03-15T23:21:26.705Z,94773.34
2023-03-15T23:23:55.909Z,94785.97
2023-03-15T23:26:25.315Z,94786.13
2023-03-15T23:28:53.510Z,94807.88
2023-03-15T23:31:21.546Z,94764.91
2023-03-15T23:33:49.362Z,94698.59
2023-03-15T23:36:17.228Z,94644.00
2023-03-15T23:38:45.099Z,94578.56
2023-03-15T23:41:14.245Z,94542.47
2023-03-15T23:43:42.017Z,94505.72
2023-03-15T23:46:10.021Z,94464.59
2023-03-15T23:48:37.936Z,94463.00
2023-03-15T23:51:05.959Z,94424.16
2023-03-15T23:53:33.767Z,94455.88
2023-03-15T23:56:01.589Z,94521.59
2023-03-15T23:58:30.881Z,94534.88
